sensor_id;sensor_type;location;lat;lon;timestamp;pressure;altitude;pressure_sealevel;temperature;humidity
6853;BME280;3465;42.144;24.722;2023-10-31T00:00:19;61202.91;;;9.95;nan
6853;BME280;3465;42.144;24.722;2023-10-31T00:02:45;61212.53;;;9.94;nan
6853;BME280;3465;42.144;24.722;2023-10-31T00:05:10;61181.34;;;9.91;nan
6853;BME280;3465;42.144;24.722;2023-10-31T00:07:35;61146.91;;;9.92;nan
6853;BME280;3465;42.144;24.722;2023-10-31T00:10:01;61119.75;;;9.88;nan
6853;BME280;3465;42.144;24.722;2023-10-31T00:12:27;61084.97;;;9.84;nan
6853;BME280;3465;42.144;24.722;2023-10-31T00:14:53;61105.09;;;9.75;nan
6853;BME280;3465;42.144;24.722;2023-10-31T00:17:18;60897.88;;;9.71;nan
6853;BME280;3465;42.144;24.722;2023-10-31T00:19:43;60934.88;;;9.63;nan
6853;BME280;3465;42.144;24.722;2023-10-31T00:22:09;60861.38;;;9.56;nan
6853;BME280;3465;42.144;24.722;2023-10-31T00:24:36;61009.31;;;9.61;nan
6853;BME280;3465;42.144;24.722;2023-10-31T00:27:01;60713.03;;;9.59;nan
6853;BME280;3465;42.144;24.722;2023-10-31T00:29:27;60707.81;;;9.57;nan
6853;BME280;3465;42.144;24.722;2023-10-31T00:31:52;60717.97;;;9.57;nan
6853;BME280;3465;42.144;24.722;2023-10-31T00:34:18;60654.41;;;9.54;nan
6853;BME280;3465;42.144;24.722;2023-10-31T00:36:43;60569.38;;;9.48;nan
6853;BME280;3465;42.144;24.722;2023-10-31T00:39:08;60783.69;;;9.24;nan
6853;BME280;3465;42.144;24.722;2023-10-31T00:41:34;60571.22;;;9.45;nan
6853;BME280;3465;42.144;24.722;2023-10-31T00:43:59;60435.91;;;9.37;nan
6853;BME280;3465;42.144;24.722;2023-10-31T00:46:24;60254.38;;;9.36;nan
6853;BME280;3465;42.144;24.722;2023-10-31T00:48:50;60046.06;;;9.35;nan
6853;BME280;3465;42.144;24.722;2023-10-31T00:51:15;60018.22;;;9.35;nan
6853;BME280;3465;42.144;24.722;2023-10-31T00:53:40;60179.31;;;9.34;nan
6853;BME280;3465;42.144;24.722;2023-10-31T00:56:07;59923.13;;;9.29;nan
6853;BME280;3465;42.144;24.722;2023-10-31T00:58:32;59663.91;;;9.12;nan
6853;BME280;3465;42.144;24.722;2023-10-31T01:00:58;59526.25;;;9.25;nan
6853;BME280;3465;42.144;24.722;2023-10-31T01:03:23;58460.56;;;9.23;nan
6853;BME280;3465;42.144;24.722;2023-10-31T01:05:48;59247.97;;;9.21;nan
6853;BME280;3465;42.144;24.722;2023-10-31T01:08:14;59172.53;;;9.21;nan
6853;BME280;3465;42.144;24.722;2023-10-31T01:10:40;58341.72;;;9.11;nan
6853;BME280;3465;42.144;24.722;2023-10-31T01:13:05;56760.47;;;9.04;nan
6853;BME280;3465;42.144;24.722;2023-10-31T01:15:31;56999.72;;;8.91;nan
6853;BME280;3465;42.144;24.722;2023-10-31T01:17:57;53749.16;;;8.94;nan
6853;BME280;3465;42.144;24.722;2023-10-31T01:20:22;53118.97;;;8.93;nan
6853;BME280;3465;42.144;24.722;2023-10-31T01:22:48;52968.00;;;8.91;nan
6853;BME280;3465;42.144;24.722;2023-10-31T01:25:13;53168.06;;;8.92;nan
6853;BME280;3465;42.144;24.722;2023-10-31T01:27:39;52277.72;;;8.85;nan
6853;BME280;3465;42.144;24.722;2023-10-31T01:30:04;52483.91;;;8.84;nan
6853;BME280;3465;42.144;24.722;2023-10-31T01:32:30;51419.53;;;8.86;nan
6853;BME280;3465;42.144;24.722;2023-10-31T01:34:55;50453.94;;;8.82;nan
6853;BME280;3465;42.144;24.722;2023-10-31T01:37:21;50441.63;;;8.73;nan
6853;BME280;3465;42.144;24.722;2023-10-31T01:39:46;48320.84;;;8.72;nan
6853;BME280;3465;42.144;24.722;2023-10-31T01:42:16;48322.41;;;8.68;nan
6853;BME280;3465;42.144;24.722;2023-10-31T01:44:41;43923.09;;;8.63;nan
6853;BME280;3465;42.144;24.722;2023-10-31T01:47:07;41725.84;;;8.58;nan
6853;BME280;3465;42.144;24.722;2023-10-31T01:49:32;39148.19;;;8.56;nan
6853;BME280;3465;42.144;24.722;2023-10-31T01:54:24;33678.59;;;8.53;nan
6853;BME280;3465;42.144;24.722;2023-10-31T01:56:50;32715.31;;;8.54;nan
6853;BME280;3465;42.144;24.722;2023-10-31T01:59:19;33998.69;;;8.51;nan
6853;BME280;3465;42.144;24.722;2023-10-31T02:01:44;25647.50;;;8.39;nan
6853;BME280;3465;42.144;24.722;2023-10-31T02:04:10;19240.22;;;8.30;nan
6853;BME280;3465;42.144;24.722;2023-10-31T02:06:35;11890.19;;;8.24;nan
6853;BME280;3465;42.144;24.722;2023-10-31T02:09:01;9018.06;;;8.17;nan
6853;BME280;3465;42.144;24.722;2023-10-31T02:11:26;7104.63;;;8.11;nan
6853;BME280;3465;42.144;24.722;2023-10-31T02:13:51;3282.81;;;8.02;nan
6853;BME280;3465;42.144;24.722;2023-10-31T02:16:17;1374.66;;;8.04;nan
6853;BME280;3465;42.144;24.722;2023-10-31T02:18:42;1375.13;;;8.08;nan
6853;BME280;3465;42.144;24.722;2023-10-31T02:21:08;1375.47;;;8.12;nan
6853;BME280;3465;42.144;24.722;2023-10-31T02:23:33;1693.72;;;8.14;nan
6853;BME280;3465;42.144;24.722;2023-10-31T02:25:59;2011.78;;;8.14;nan
6853;BME280;3465;42.144;24.722;2023-10-31T02:28:24;2330.06;;;8.15;nan
6853;BME280;3465;42.144;24.722;2023-10-31T02:30:53;3284.72;;;8.16;nan
6853;BME280;3465;42.144;24.722;2023-10-31T02:35:45;4237.06;;;7.99;nan
6853;BME280;3465;42.144;24.722;2023-10-31T02:38:10;2327.34;;;7.92;nan
6853;BME280;3465;42.144;24.722;2023-10-31T02:40:36;736.94;;;7.83;nan
6853;BME280;3465;42.144;24.722;2023-10-31T02:43:01;419.97;;;7.93;nan
6853;BME280;3465;42.144;24.722;2023-10-31T02:45:27;420.19;;;7.96;nan
6853;BME280;3465;42.144;24.722;2023-10-31T02:47:54;-533.19;;;7.96;nan
6853;BME280;3465;42.144;24.722;2023-10-31T02:50:20;-851.06;;;7.94;nan
6853;BME280;3465;42.144;24.722;2023-10-31T02:52:45;-1168.88;;;7.92;nan
6853;BME280;3465;42.144;24.722;2023-10-31T02:55:11;-851.56;;;7.86;nan
6853;BME280;3465;42.144;24.722;2023-10-31T02:57:36;-2757.06;;;7.85;nan
6853;BME280;3465;42.144;24.722;2023-10-31T03:00:02;-4978.66;;;7.79;nan
6853;BME280;3465;42.144;24.722;2023-10-31T03:02:28;-7515.22;;;7.72;nan
6853;BME280;3465;42.144;24.722;2023-10-31T03:04:55;-9416.56;;;7.74;nan
6853;BME280;3465;42.144;24.722;2023-10-31T03:07:20;-9416.75;;;7.77;nan
6853;BME280;3465;42.144;24.722;2023-10-31T03:09:45;-9416.50;;;7.73;nan
6853;BME280;3465;42.144;24.722;2023-10-31T03:12:11;-10998.50;;;7.59;nan
6853;BME280;3465;42.144;24.722;2023-10-31T03:14:36;-10999.09;;;7.65;nan
6853;BME280;3465;42.144;24.722;2023-10-31T03:17:02;-10998.44;;;7.58;nan
6853;BME280;3465;42.144;24.722;2023-10-31T03:19:27;-11948.56;;;7.64;nan
6853;BME280;3465;42.144;24.722;2023-10-31T03:21:52;-12265.28;;;7.66;nan
6853;BME280;3465;42.144;24.722;2023-10-31T03:24:18;-12581.97;;;7.68;nan
6853;BME280;3465;42.144;24.722;2023-10-31T03:26:43;-13213.91;;;7.61;nan
6853;BME280;3465;42.144;24.722;2023-10-31T03:29:09;-13213.56;;;7.59;nan
6853;BME280;3465;42.144;24.722;2023-10-31T03:31:34;-13845.31;;;7.53;nan
6853;BME280;3465;42.144;24.722;2023-10-31T03:33:59;-14792.44;;;7.44;nan
6853;BME280;3465;42.144;24.722;2023-10-31T03:36:25;-15424.31;;;7.43;nan
6853;BME280;3465;42.144;24.722;2023-10-31T03:38:50;-16054.75;;;7.34;nan
6853;BME280;3465;42.144;24.722;2023-10-31T03:41:15;-16370.47;;;7.33;nan
6853;BME280;3465;42.144;24.722;2023-10-31T03:43:41;-16686.16;;;7.32;nan
6853;BME280;3465;42.144;24.722;2023-10-31T03:46:06;-17001.38;;;7.29;nan
6853;BME280;3465;42.144;24.722;2023-10-31T03:48:31;-17314.31;;;7.15;nan
6853;BME280;3465;42.144;24.722;2023-10-31T03:50:57;-17317.06;;;7.28;nan
6853;BME280;3465;42.144;24.722;2023-10-31T03:53:23;-17315.53;;;7.21;nan
6853;BME280;3465;42.144;24.722;2023-10-31T03:55:48;-17947.38;;;7.23;nan
6853;BME280;3465;42.144;24.722;2023-10-31T03:58:14;-18261.28;;;7.15;nan
6853;BME280;3465;42.144;24.722;2023-10-31T04:00:39;-18890.50;;;7.06;nan
6853;BME280;3465;42.144;24.722;2023-10-31T04:03:06;-19518.66;;;6.95;nan
6853;BME280;3465;42.144;24.722;2023-10-31T04:05:31;-20149.25;;;6.94;nan
6853;BME280;3465;42.144;24.722;2023-10-31T04:07:56;-20463.41;;;6.90;nan
6853;BME280;3465;42.144;24.722;2023-10-31T04:10:22;-20463.03;;;6.88;nan
6853;BME280;3465;42.144;24.722;2023-10-31T04:12:47;-20778.00;;;6.87;nan
6853;BME280;3465;42.144;24.722;2023-10-31T04:15:13;-20779.84;;;6.94;nan
6853;BME280;3465;42.144;24.722;2023-10-31T04:17:38;-20778.91;;;6.91;nan
6853;BME280;3465;42.144;24.722;2023-10-31T04:20:04;-20463.03;;;6.88;nan
6853;BME280;3465;42.144;24.722;2023-10-31T04:22:29;-20776.03;;;6.80;nan
6853;BME280;3465;42.144;24.722;2023-10-31T04:24:55;-20771.06;;;6.61;nan
6853;BME280;3465;42.144;24.722;2023-10-31T04:27:21;-20771.84;;;6.64;nan
6853;BME280;3465;42.144;24.722;2023-10-31T04:29:47;-20772.50;;;6.66;nan
6853;BME280;3465;42.144;24.722;2023-10-31T04:32:12;-20771.72;;;6.56;nan
6853;BME280;3465;42.144;24.722;2023-10-31T04:34:38;-20769.09;;;6.46;nan
6853;BME280;3465;42.144;24.722;2023-10-31T04:37:03;-20773.31;;;6.62;nan
6853;BME280;3465;42.144;24.722;2023-10-31T04:39:29;-20773.56;;;6.63;nan
6853;BME280;3465;42.144;24.722;2023-10-31T04:41:54;-20772.66;;;6.60;nan
6853;BME280;3465;42.144;24.722;2023-10-31T04:44:19;-20771.06;;;6.54;nan
6853;BME280;3465;42.144;24.722;2023-10-31T04:46:45;-20771.06;;;6.54;nan
6853;BME280;3465;42.144;24.722;2023-10-31T04:49:10;-20769.63;;;6.48;nan
6853;BME280;3465;42.144;24.722;2023-10-31T04:51:36;-20770.16;;;6.50;nan
6853;BME280;3465;42.144;24.722;2023-10-31T04:54:04;-20768.19;;;6.43;nan
6853;BME280;3465;42.144;24.722;2023-10-31T04:56:30;-20767.00;;;6.38;nan
6853;BME280;3465;42.144;24.722;2023-10-31T04:58:56;-20766.75;;;6.37;nan
6853;BME280;3465;42.144;24.722;2023-10-31T05:01:21;-20764.13;;;6.27;nan
6853;BME280;3465;42.144;24.722;2023-10-31T05:03:46;-20769.09;;;6.46;nan
6853;BME280;3465;42.144;24.722;2023-10-31T05:06:12;-20768.59;;;6.44;nan
6853;BME280;3465;42.144;24.722;2023-10-31T05:08:37;-20770.69;;;6.52;nan
6853;BME280;3465;42.144;24.722;2023-10-31T05:11:03;-20771.34;;;6.55;nan
6853;BME280;3465;42.144;24.722;2023-10-31T05:13:28;-20772.00;;;6.57;nan
6853;BME280;3465;42.144;24.722;2023-10-31T05:15:54;-20771.06;;;6.54;nan
6853;BME280;3465;42.144;24.722;2023-10-31T05:18:19;-20773.31;;;6.62;nan
6853;BME280;3465;42.144;24.722;2023-10-31T05:20:45;-20774.63;;;6.67;nan
6853;BME280;3465;42.144;24.722;2023-10-31T05:23:11;-20774.09;;;6.65;nan
6853;BME280;3465;42.144;24.722;2023-10-31T05:25:37;-20776.19;;;6.73;nan
6853;BME280;3465;42.144;24.722;2023-10-31T05:28:03;-20776.84;;;6.76;nan
6853;BME280;3465;42.144;24.722;2023-10-31T05:30:29;-20777.88;;;6.80;nan
6853;BME280;3465;42.144;24.722;2023-10-31T05:32:56;-20780.13;;;6.88;nan
6853;BME280;3465;42.144;24.722;2023-10-31T05:35:21;-20776.81;;;6.83;nan
6853;BME280;3465;42.144;24.722;2023-10-31T05:37:47;-20776.97;;;6.76;nan
6853;BME280;3465;42.144;24.722;2023-10-31T05:40:14;-20781.94;;;6.95;nan
6853;BME280;3465;42.144;24.722;2023-10-31T05:42:41;-20795.31;;;7.47;nan
6853;BME280;3465;42.144;24.722;2023-10-31T05:45:07;-17969.34;;;8.25;nan
6853;BME280;3465;42.144;24.722;2023-10-31T05:47:32;-9745.69;;;9.27;nan
6853;BME280;3465;42.144;24.722;2023-10-31T05:50:00;440.75;;;10.38;nan
6853;BME280;3465;42.144;24.722;2023-10-31T05:52:29;15512.94;;;11.59;nan
6853;BME280;3465;42.144;24.722;2023-10-31T05:54:55;29729.13;;;12.54;nan
6853;BME280;3465;42.144;24.722;2023-10-31T05:57:20;49966.50;;;12.42;nan
6853;BME280;3465;42.144;24.722;2023-10-31T05:59:46;52931.13;;;12.03;nan
6853;BME280;3465;42.144;24.722;2023-10-31T06:02:12;51263.94;;;11.29;nan
6853;BME280;3465;42.144;24.722;2023-10-31T06:04:38;50987.16;;;10.87;nan
6853;BME280;3465;42.144;24.722;2023-10-31T06:07:03;49074.53;;;10.12;nan
6853;BME280;3465;42.144;24.722;2023-10-31T06:09:29;44231.41;;;10.50;nan
6853;BME280;3465;42.144;24.722;2023-10-31T06:11:54;42924.50;;;11.17;nan
6853;BME280;3465;42.144;24.722;2023-10-31T06:14:19;48973.31;;;11.58;nan
6853;BME280;3465;42.144;24.722;2023-10-31T06:16:45;52031.88;;;13.50;nan
6853;BME280;3465;42.144;24.722;2023-10-31T06:19:11;56920.13;;;15.15;nan
6853;BME280;3465;42.144;24.722;2023-10-31T06:21:36;59430.22;;;16.47;nan
6853;BME280;3465;42.144;24.722;2023-10-31T06:24:03;60155.69;;;17.56;nan
6853;BME280;3465;42.144;24.722;2023-10-31T06:26:28;61223.44;;;18.70;nan
6853;BME280;3465;42.144;24.722;2023-10-31T06:28:54;61842.22;;;19.13;nan
6853;BME280;3465;42.144;24.722;2023-10-31T06:31:19;61968.00;;;19.72;nan
6853;BME280;3465;42.144;24.722;2023-10-31T06:33:45;62218.78;;;20.46;nan
6853;BME280;3465;42.144;24.722;2023-10-31T06:36:10;62441.75;;;21.05;nan
6853;BME280;3465;42.144;24.722;2023-10-31T06:38:36;62582.94;;;21.38;nan
6853;BME280;3465;42.144;24.722;2023-10-31T06:41:02;62694.31;;;21.40;nan
6853;BME280;3465;42.144;24.722;2023-10-31T06:43:28;62823.38;;;21.52;nan
6853;BME280;3465;42.144;24.722;2023-10-31T06:45:54;62871.94;;;21.65;nan
6853;BME280;3465;42.144;24.722;2023-10-31T06:48:19;62906.41;;;22.34;nan
6853;BME280;3465;42.144;24.722;2023-10-31T06:50:45;62910.47;;;22.99;nan
6853;BME280;3465;42.144;24.722;2023-10-31T06:53:10;63051.34;;;23.18;nan
6853;BME280;3465;42.144;24.722;2023-10-31T06:55:36;63130.44;;;23.15;nan
6853;BME280;3465;42.144;24.722;2023-10-31T06:58:01;63208.78;;;23.57;nan
6853;BME280;3465;42.144;24.722;2023-10-31T07:00:27;63226.00;;;23.87;nan
6853;BME280;3465;42.144;24.722;2023-10-31T07:02:53;63229.97;;;24.56;nan
6853;BME280;3465;42.144;24.722;2023-10-31T07:05:18;63304.03;;;25.32;nan
6853;BME280;3465;42.144;24.722;2023-10-31T07:07:48;63342.09;;;26.00;nan
6853;BME280;3465;42.144;24.722;2023-10-31T07:10:13;63423.66;;;26.40;nan
6853;BME280;3465;42.144;24.722;2023-10-31T07:12:39;63839.75;;;26.89;nan
6853;BME280;3465;42.144;24.722;2023-10-31T07:15:05;63595.50;;;26.52;nan
6853;BME280;3465;42.144;24.722;2023-10-31T07:17:30;63642.75;;;26.92;nan
6853;BME280;3465;42.144;24.722;2023-10-31T07:19:56;63654.78;;;27.36;nan
6853;BME280;3465;42.144;24.722;2023-10-31T07:22:22;63694.28;;;28.07;nan
6853;BME280;3465;42.144;24.722;2023-10-31T07:24:50;63686.88;;;28.73;nan
6853;BME280;3465;42.144;24.722;2023-10-31T07:27:15;63804.97;;;29.22;nan
6853;BME280;3465;42.144;24.722;2023-10-31T07:29:41;63763.13;;;29.70;nan
6853;BME280;3465;42.144;24.722;2023-10-31T07:32:07;63877.88;;;30.07;nan
6853;BME280;3465;42.144;24.722;2023-10-31T07:34:33;63957.84;;;30.10;nan
6853;BME280;3465;42.144;24.722;2023-10-31T07:36:58;64187.91;;;29.58;nan
6853;BME280;3465;42.144;24.722;2023-10-31T07:39:25;64258.38;;;27.73;nan
6853;BME280;3465;42.144;24.722;2023-10-31T07:41:51;64140.13;;;25.40;nan
6853;BME280;3465;42.144;24.722;2023-10-31T07:44:16;63910.03;;;23.39;nan
6853;BME280;3465;42.144;24.722;2023-10-31T07:46:41;63693.56;;;21.41;nan
6853;BME280;3465;42.144;24.722;2023-10-31T07:49:07;63428.44;;;19.47;nan
6853;BME280;3465;42.144;24.722;2023-10-31T07:51:33;63275.56;;;18.12;nan
6853;BME280;3465;42.144;24.722;2023-10-31T07:53:59;63147.16;;;17.43;nan
6853;BME280;3465;42.144;24.722;2023-10-31T07:56:25;63146.25;;;16.91;nan
6853;BME280;3465;42.144;24.722;2023-10-31T07:58:51;62969.41;;;16.71;nan
6853;BME280;3465;42.144;24.722;2023-10-31T08:01:18;63112.88;;;16.68;nan
6853;BME280;3465;42.144;24.722;2023-10-31T08:03:45;62907.50;;;16.01;nan
6853;BME280;3465;42.144;24.722;2023-10-31T08:06:11;63023.72;;;16.23;nan
6853;BME280;3465;42.144;24.722;2023-10-31T08:08:37;62973.19;;;16.37;nan
6853;BME280;3465;42.144;24.722;2023-10-31T08:11:02;63201.91;;;16.42;nan
6853;BME280;3465;42.144;24.722;2023-10-31T08:13:29;63111.63;;;16.95;nan
6853;BME280;3465;42.144;24.722;2023-10-31T08:15:55;63102.31;;;17.12;nan
6853;BME280;3465;42.144;24.722;2023-10-31T08:18:22;63318.25;;;18.83;nan
6853;BME280;3465;42.144;24.722;2023-10-31T08:20:48;63368.84;;;19.56;nan
6853;BME280;3465;42.144;24.722;2023-10-31T08:23:17;63485.75;;;20.38;nan
6853;BME280;3465;42.144;24.722;2023-10-31T08:25:43;63635.25;;;22.35;nan
6853;BME280;3465;42.144;24.722;2023-10-31T08:28:12;63815.59;;;23.71;nan
6853;BME280;3465;42.144;24.722;2023-10-31T08:30:38;63766.03;;;25.03;nan
6853;BME280;3465;42.144;24.722;2023-10-31T08:33:04;63866.69;;;26.52;nan
6853;BME280;3465;42.144;24.722;2023-10-31T08:35:31;63911.44;;;27.46;nan
6853;BME280;3465;42.144;24.722;2023-10-31T08:37:57;63931.03;;;27.77;nan
6853;BME280;3465;42.144;24.722;2023-10-31T08:40:23;63937.94;;;28.49;nan
6853;BME280;3465;42.144;24.722;2023-10-31T08:42:48;63947.59;;;28.88;nan
6853;BME280;3465;42.144;24.722;2023-10-31T08:45:14;64000.28;;;29.14;nan
6853;BME280;3465;42.144;24.722;2023-10-31T08:47:39;64099.03;;;28.90;nan
6853;BME280;3465;42.144;24.722;2023-10-31T08:50:05;64105.75;;;29.46;nan
6853;BME280;3465;42.144;24.722;2023-10-31T08:52:33;64074.84;;;29.67;nan
6853;BME280;3465;42.144;24.722;2023-10-31T08:54:59;64250.44;;;30.37;nan
6853;BME280;3465;42.144;24.722;2023-10-31T08:57:25;64043.13;;;30.82;nan
6853;BME280;3465;42.144;24.722;2023-10-31T08:59:50;64011.69;;;31.29;nan
6853;BME280;3465;42.144;24.722;2023-10-31T09:02:15;64461.44;;;31.48;nan
6853;BME280;3465;42.144;24.722;2023-10-31T09:04:41;64257.97;;;31.19;nan
6853;BME280;3465;42.144;24.722;2023-10-31T09:07:06;64333.41;;;31.37;nan
6853;BME280;3465;42.144;24.722;2023-10-31T09:09:32;64391.19;;;31.51;nan
6853;BME280;3465;42.144;24.722;2023-10-31T09:11:57;64506.44;;;30.90;nan
6853;BME280;3465;42.144;24.722;2023-10-31T09:14:22;64327.44;;;29.80;nan
6853;BME280;3465;42.144;24.722;2023-10-31T09:16:48;64570.19;;;28.58;nan
6853;BME280;3465;42.144;24.722;2023-10-31T09:19:13;64562.03;;;27.07;nan
6853;BME280;3465;42.144;24.722;2023-10-31T09:21:38;64011.41;;;26.16;nan
6853;BME280;3465;42.144;24.722;2023-10-31T09:24:04;64338.91;;;25.87;nan
6853;BME280;3465;42.144;24.722;2023-10-31T09:26:30;64431.13;;;26.23;nan
6853;BME280;3465;42.144;24.722;2023-10-31T09:28:55;64546.03;;;26.79;nan
6853;BME280;3465;42.144;24.722;2023-10-31T09:31:21;64532.81;;;26.64;nan
6853;BME280;3465;42.144;24.722;2023-10-31T09:33:46;64581.75;;;27.84;nan
6853;BME280;3465;42.144;24.722;2023-10-31T09:36:12;64615.94;;;28.36;nan
6853;BME280;3465;42.144;24.722;2023-10-31T09:38:39;64661.44;;;29.22;nan
6853;BME280;3465;42.144;24.722;2023-10-31T09:41:05;64702.13;;;30.03;nan
6853;BME280;3465;42.144;24.722;2023-10-31T09:43:31;65134.72;;;30.42;nan
6853;BME280;3465;42.144;24.722;2023-10-31T09:45:57;64808.53;;;30.46;nan
6853;BME280;3465;42.144;24.722;2023-10-31T09:48:23;64829.22;;;30.55;nan
6853;BME280;3465;42.144;24.722;2023-10-31T09:50:49;64765.59;;;30.73;nan
6853;BME280;3465;42.144;24.722;2023-10-31T09:53:15;64809.44;;;31.28;nan
6853;BME280;3465;42.144;24.722;2023-10-31T09:55:44;64721.78;;;31.83;nan
6853;BME280;3465;42.144;24.722;2023-10-31T09:58:10;64791.06;;;32.15;nan
6853;BME280;3465;42.144;24.722;2023-10-31T10:00:36;65173.44;;;32.18;nan
6853;BME280;3465;42.144;24.722;2023-10-31T10:03:03;64903.59;;;32.00;nan
6853;BME280;3465;42.144;24.722;2023-10-31T10:05:31;64892.22;;;32.69;nan
6853;BME280;3465;42.144;24.722;2023-10-31T10:07:57;65264.09;;;30.68;nan
6853;BME280;3465;42.144;24.722;2023-10-31T10:10:23;64944.50;;;29.06;nan
6853;BME280;3465;42.144;24.722;2023-10-31T10:12:51;64899.81;;;28.81;nan
6853;BME280;3465;42.144;24.722;2023-10-31T10:15:16;64894.75;;;29.06;nan
6853;BME280;3465;42.144;24.722;2023-10-31T10:17:48;64884.72;;;29.11;nan
6853;BME280;3465;42.144;24.722;2023-10-31T10:20:14;64953.13;;;29.51;nan
6853;BME280;3465;42.144;24.722;2023-10-31T10:22:41;64901.56;;;28.82;nan
6853;BME280;3465;42.144;24.722;2023-10-31T10:25:14;64899.28;;;28.80;nan
6853;BME280;3465;42.144;24.722;2023-10-31T10:27:46;64851.25;;;28.40;nan
6853;BME280;3465;42.144;24.722;2023-10-31T10:30:14;64831.81;;;27.63;nan
6853;BME280;3465;42.144;24.722;2023-10-31T10:32:39;64709.00;;;27.63;nan
6853;BME280;3465;42.144;24.722;2023-10-31T10:35:06;64711.13;;;27.39;nan
6853;BME280;3465;42.144;24.722;2023-10-31T10:37:31;64719.06;;;27.35;nan
6853;BME280;3465;42.144;24.722;2023-10-31T10:39:57;64661.97;;;26.56;nan
6853;BME280;3465;42.144;24.722;2023-10-31T10:42:54;64693.44;;;27.17;nan
6853;BME280;3465;42.144;24.722;2023-10-31T10:45:23;65149.44;;;27.78;nan
6853;BME280;3465;42.144;24.722;2023-10-31T10:47:50;64704.22;;;27.26;nan
6853;BME280;3465;42.144;24.722;2023-10-31T10:50:18;64535.97;;;26.23;nan
6853;BME280;3465;42.144;24.722;2023-10-31T10:55:36;64712.16;;;27.33;nan
6853;BME280;3465;42.144;24.722;2023-10-31T10:58:05;64929.53;;;28.15;nan
6853;BME280;3465;42.144;24.722;2023-10-31T11:00:34;64765.19;;;27.89;nan
6853;BME280;3465;42.144;24.722;2023-10-31T11:03:01;64737.78;;;27.51;nan
6853;BME280;3465;42.144;24.722;2023-10-31T11:05:27;64743.03;;;27.28;nan
6853;BME280;3465;42.144;24.722;2023-10-31T11:07:53;64796.78;;;27.92;nan
6853;BME280;3465;42.144;24.722;2023-10-31T11:10:21;64742.97;;;27.74;nan
6853;BME280;3465;42.144;24.722;2023-10-31T11:12:47;64754.22;;;27.66;nan
6853;BME280;3465;42.144;24.722;2023-10-31T11:15:15;64623.63;;;26.59;nan
6853;BME280;3465;42.144;24.722;2023-10-31T11:17:44;64461.56;;;26.92;nan
6853;BME280;3465;42.144;24.722;2023-10-31T11:20:14;64597.84;;;26.27;nan
6853;BME280;3465;42.144;24.722;2023-10-31T11:22:42;64402.91;;;25.56;nan
6853;BME280;3465;42.144;24.722;2023-10-31T11:25:12;64089.31;;;25.18;nan
6853;BME280;3465;42.144;24.722;2023-10-31T11:27:37;64502.81;;;25.85;nan
6853;BME280;3465;42.144;24.722;2023-10-31T11:30:07;65178.56;;;25.83;nan
6853;BME280;3465;42.144;24.722;2023-10-31T11:32:33;64490.53;;;25.46;nan
6853;BME280;3465;42.144;24.722;2023-10-31T11:34:59;64465.75;;;25.31;nan
6853;BME280;3465;42.144;24.722;2023-10-31T11:37:33;64420.19;;;25.04;nan
6853;BME280;3465;42.144;24.722;2023-10-31T11:42:43;64392.28;;;24.77;nan
6853;BME280;3465;42.144;24.722;2023-10-31T11:45:09;64480.22;;;25.53;nan
6853;BME280;3465;42.144;24.722;2023-10-31T11:47:50;64388.53;;;24.88;nan
6853;BME280;3465;42.144;24.722;2023-10-31T11:50:17;64461.56;;;25.25;nan
6853;BME280;3465;42.144;24.722;2023-10-31T11:52:43;64470.03;;;25.56;nan
6853;BME280;3465;42.144;24.722;2023-10-31T11:55:10;64420.19;;;24.93;nan
6853;BME280;3465;42.144;24.722;2023-10-31T11:57:36;64231.88;;;23.69;nan
6853;BME280;3465;42.144;24.722;2023-10-31T12:00:02;64215.72;;;23.80;nan
6853;BME280;3465;42.144;24.722;2023-10-31T12:02:29;64127.25;;;23.66;nan
6853;BME280;3465;42.144;24.722;2023-10-31T12:05:10;64066.72;;;22.80;nan
6853;BME280;3465;42.144;24.722;2023-10-31T12:07:44;63996.66;;;22.04;nan
6853;BME280;3465;42.144;24.722;2023-10-31T12:10:10;63857.97;;;21.40;nan
6853;BME280;3465;42.144;24.722;2023-10-31T12:12:36;63973.31;;;21.23;nan
6853;BME280;3465;42.144;24.722;2023-10-31T12:15:08;63780.66;;;20.73;nan
6853;BME280;3465;42.144;24.722;2023-10-31T12:17:34;63733.50;;;20.43;nan
6853;BME280;3465;42.144;24.722;2023-10-31T12:20:07;64118.84;;;20.43;nan
6853;BME280;3465;42.144;24.722;2023-10-31T12:22:34;63725.34;;;20.26;nan
6853;BME280;3465;42.144;24.722;2023-10-31T12:25:07;63715.34;;;20.24;nan
6853;BME280;3465;42.144;24.722;2023-10-31T12:27:46;63709.84;;;20.26;nan
6853;BME280;3465;42.144;24.722;2023-10-31T12:30:13;63735.44;;;20.35;nan
6853;BME280;3465;42.144;24.722;2023-10-31T12:32:42;63717.00;;;20.14;nan
6853;BME280;3465;42.144;24.722;2023-10-31T12:35:13;63658.78;;;20.04;nan
6853;BME280;3465;42.144;24.722;2023-10-31T12:37:48;63555.56;;;19.92;nan
6853;BME280;3465;42.144;24.722;2023-10-31T12:40:19;63690.84;;;20.05;nan
6853;BME280;3465;42.144;24.722;2023-10-31T12:42:47;63587.00;;;19.62;nan
6853;BME280;3465;42.144;24.722;2023-10-31T12:45:13;63611.69;;;19.61;nan
6853;BME280;3465;42.144;24.722;2023-10-31T12:47:39;63565.06;;;19.47;nan
6853;BME280;3465;42.144;24.722;2023-10-31T12:50:23;63618.31;;;19.60;nan
6853;BME280;3465;42.144;24.722;2023-10-31T12:52:50;63607.19;;;19.69;nan
6853;BME280;3465;42.144;24.722;2023-10-31T12:55:20;63597.56;;;19.65;nan
6853;BME280;3465;42.144;24.722;2023-10-31T12:57:46;63607.44;;;19.60;nan
6853;BME280;3465;42.144;24.722;2023-10-31T13:00:13;63617.63;;;19.76;nan
6853;BME280;3465;42.144;24.722;2023-10-31T13:02:40;63586.44;;;19.85;nan
6853;BME280;3465;42.144;24.722;2023-10-31T13:05:13;63675.47;;;19.88;nan
6853;BME280;3465;42.144;24.722;2023-10-31T13:07:52;63619.88;;;19.78;nan
6853;BME280;3465;42.144;24.722;2023-10-31T13:10:19;63494.31;;;19.58;nan
6853;BME280;3465;42.144;24.722;2023-10-31T13:12:45;63597.44;;;19.58;nan
6853;BME280;3465;42.144;24.722;2023-10-31T13:15:14;63551.59;;;19.58;nan
6853;BME280;3465;42.144;24.722;2023-10-31T13:17:40;63588.25;;;19.47;nan
6853;BME280;3465;42.144;24.722;2023-10-31T13:20:13;63603.50;;;19.56;nan
6853;BME280;3465;42.144;24.722;2023-10-31T13:22:40;63594.41;;;19.53;nan
6853;BME280;3465;42.144;24.722;2023-10-31T13:25:07;63519.44;;;19.50;nan
6853;BME280;3465;42.144;24.722;2023-10-31T13:27:35;63594.09;;;19.55;nan
6853;BME280;3465;42.144;24.722;2023-10-31T13:30:02;63589.38;;;19.60;nan
6853;BME280;3465;42.144;24.722;2023-10-31T13:32:28;63606.19;;;19.63;nan
6853;BME280;3465;42.144;24.722;2023-10-31T13:34:53;63591.19;;;19.57;nan
6853;BME280;3465;42.144;24.722;2023-10-31T13:37:18;63600.13;;;19.53;nan
6853;BME280;3465;42.144;24.722;2023-10-31T13:39:44;63573.91;;;19.48;nan
6853;BME280;3465;42.144;24.722;2023-10-31T13:42:09;63659.31;;;19.58;nan